createdAt,value
2018-09-27T00:00:05.327Z,11.54
2018-09-27T00:02:39.612Z,11.84
2018-09-27T00:05:11.875Z,12.00
2018-09-27T00:07:43.183Z,12.13
2018-09-27T00:10:12.188Z,11.85
2018-09-27T00:12:41.528Z,11.57
2018-09-27T00:15:10.920Z,11.44
2018-09-27T00:17:41.211Z,11.80
2018-09-27T00:20:19.348Z,11.47
2018-09-27T00:22:48.630Z,11.72
2018-09-27T00:25:19.456Z,11.66
2018-09-27T00:27:48.716Z,11.17
2018-09-27T00:30:18.177Z,11.05
2018-09-27T00:32:47.105Z,11.23
2018-09-27T00:35:16.164Z,11.25
2018-09-27T00:37:44.911Z,11.06
2018-09-27T00:40:14.862Z,11.30
2018-09-27T00:42:44.309Z,11.09
2018-09-27T00:45:14.348Z,11.23
2018-09-27T00:47:43.525Z,11.09
2018-09-27T00:50:13.014Z,11.07
2018-09-27T00:52:43.972Z,10.86
2018-09-27T00:55:13.154Z,11.01
2018-09-27T00:57:43.200Z,11.03
2018-09-27T01:00:12.556Z,11.22
2018-09-27T01:02:41.381Z,11.21
2018-09-27T01:05:12.488Z,11.05
2018-09-27T01:07:42.596Z,11.11
2018-09-27T01:10:12.587Z,11.12
2018-09-27T01:12:42.775Z,10.83
2018-09-27T01:15:12.922Z,10.97
2018-09-27T01:17:42.308Z,10.95
2018-09-27T01:20:12.409Z,11.08
2018-09-27T01:22:44.295Z,11.70
2018-09-27T01:25:13.376Z,11.72
2018-09-27T01:27:42.404Z,11.94
2018-09-27T01:30:11.716Z,12.45
2018-09-27T01:32:41.254Z,11.94
2018-09-27T01:35:10.680Z,11.32
2018-09-27T01:37:39.133Z,11.14
2018-09-27T01:40:07.698Z,10.93
2018-09-27T01:42:36.868Z,10.91
2018-09-27T01:45:05.905Z,10.93
2018-09-27T01:47:34.339Z,11.00
2018-09-27T01:50:03.930Z,10.79
2018-09-27T01:52:33.628Z,11.27
2018-09-27T01:55:03.799Z,11.00
2018-09-27T01:57:32.938Z,10.92
2018-09-27T02:00:02.659Z,10.54
2018-09-27T02:02:32.937Z,10.51
2018-09-27T02:05:02.824Z,10.32
2018-09-27T02:07:32.833Z,10.01
2018-09-27T02:10:02.259Z,10.15
2018-09-27T02:12:36.163Z,10.04
2018-09-27T02:15:06.677Z,10.14
2018-09-27T02:17:36.555Z,10.25
2018-09-27T02:20:05.216Z,10.40
2018-09-27T02:22:34.632Z,9.85
2018-09-27T02:25:03.919Z,10.64
2018-09-27T02:27:33.110Z,10.78
2018-09-27T02:30:02.540Z,10.99
2018-09-27T02:32:31.707Z,10.81
2018-09-27T02:35:01.040Z,10.45
2018-09-27T02:37:30.823Z,10.67
2018-09-27T02:40:00.355Z,10.33
2018-09-27T02:42:30.282Z,10.14
2018-09-27T02:45:00.419Z,10.29
2018-09-27T02:47:29.946Z,10.30
2018-09-27T02:49:59.948Z,10.51
2018-09-27T02:52:29.520Z,10.36
2018-09-27T02:54:58.559Z,10.57
2018-09-27T02:57:27.660Z,10.15
2018-09-27T02:59:56.353Z,10.02
2018-09-27T03:02:26.707Z,9.92
2018-09-27T03:04:55.488Z,9.72
2018-09-27T03:07:24.915Z,8.83
2018-09-27T03:09:53.944Z,9.76
2018-09-27T03:12:26.144Z,9.82
2018-09-27T03:14:56.756Z,9.75
2018-09-27T03:17:26.547Z,9.88
2018-09-27T03:19:55.705Z,9.78
2018-09-27T03:22:27.107Z,10.06
2018-09-27T03:24:56.688Z,10.09
2018-09-27T03:27:26.820Z,10.49
2018-09-27T03:29:55.368Z,10.37
2018-09-27T03:32:24.466Z,10.11
2018-09-27T03:34:54.640Z,10.44
2018-09-27T03:37:25.034Z,10.38
2018-09-27T03:40:02.380Z,10.00
2018-09-27T03:42:31.241Z,9.75
2018-09-27T03:45:00.455Z,9.79
2018-09-27T03:47:29.296Z,9.78
2018-09-27T03:49:58.951Z,9.99
2018-09-27T03:52:28.434Z,9.65
2018-09-27T03:54:58.041Z,9.86
2018-09-27T03:57:27.458Z,10.35
2018-09-27T03:59:57.544Z,10.27
2018-09-27T04:02:27.166Z,10.29
2018-09-27T04:04:56.243Z,10.18
2018-09-27T04:07:24.950Z,10.25
2018-09-27T04:09:53.768Z,10.40
2018-09-27T04:12:23.859Z,9.89
2018-09-27T04:14:53.417Z,9.59
2018-09-27T04:17:22.120Z,9.49
2018-09-27T04:19:51.470Z,9.25
2018-09-27T04:22:21.007Z,9.54
2018-09-27T04:24:50.198Z,9.80
2018-09-27T04:27:21.227Z,9.59
2018-09-27T04:29:53.980Z,9.83
2018-09-27T04:32:22.792Z,9.99
2018-09-27T04:34:51.442Z,9.86
2018-09-27T04:37:20.980Z,9.74
2018-09-27T04:39:49.610Z,9.64
2018-09-27T04:42:21.056Z,9.69
2018-09-27T04:44:50.660Z,9.77
2018-09-27T04:47:21.263Z,9.48
2018-09-27T04:49:51.956Z,9.58
2018-09-27T04:52:22.456Z,9.30
2018-09-27T04:54:51.953Z,9.35
2018-09-27T04:57:22.446Z,9.44
2018-09-27T04:59:51.173Z,9.52
2018-09-27T05:02:21.239Z,9.46
2018-09-27T05:04:51.171Z,9.52
2018-09-27T05:07:20.144Z,9.88
2018-09-27T05:09:49.417Z,8.93
2018-09-27T05:12:18.515Z,9.67
2018-09-27T05:14:47.567Z,9.62
2018-09-27T05:17:17.021Z,9.43
2018-09-27T05:19:45.921Z,9.64
2018-09-27T05:22:15.490Z,9.86
2018-09-27T05:24:44.761Z,10.10
2018-09-27T05:27:14.272Z,10.27
2018-09-27T05:29:44.947Z,10.28
2018-09-27T05:32:15.327Z,10.22
2018-09-27T05:34:43.995Z,9.96
2018-09-27T05:37:12.471Z,9.99
2018-09-27T05:39:41.336Z,9.90
2018-09-27T05:42:12.061Z,10.39
2018-09-27T05:44:41.312Z,10.07
2018-09-27T05:47:10.740Z,10.32
2018-09-27T05:49:39.366Z,10.00
2018-09-27T05:52:09.492Z,9.80
2018-09-27T05:54:38.512Z,10.18
2018-09-27T05:57:08.548Z,10.12
2018-09-27T05:59:37.073Z,10.37
2018-09-27T06:02:07.007Z,8.53
2018-09-27T06:04:35.816Z,9.37
2018-09-27T06:07:05.195Z,10.74
2018-09-27T06:09:35.360Z,10.83
2018-09-27T06:12:05.250Z,10.20
2018-09-27T06:14:35.012Z,10.49
2018-09-27T06:17:05.952Z,11.02
2018-09-27T06:19:35.162Z,10.99
2018-09-27T06:22:04.196Z,11.19
2018-09-27T06:24:33.659Z,10.68
2018-09-27T06:27:03.358Z,11.16
2018-09-27T06:29:33.635Z,11.69
2018-09-27T06:32:02.395Z,11.84
2018-09-27T06:34:32.564Z,11.18
2018-09-27T06:37:02.123Z,10.89
2018-09-27T06:39:30.660Z,11.19
2018-09-27T06:42:01.459Z,11.56
2018-09-27T06:44:32.128Z,11.41
2018-09-27T06:47:03.195Z,11.60
2018-09-27T06:49:33.596Z,12.26
2018-09-27T06:52:03.983Z,11.92
2018-09-27T06:54:33.796Z,11.87
2018-09-27T06:57:05.016Z,12.36
2018-09-27T06:59:34.368Z,12.34
2018-09-27T07:02:04.509Z,12.04
2018-09-27T07:04:34.203Z,11.46
2018-09-27T07:07:04.002Z,11.01
2018-09-27T07:09:34.137Z,12.26
2018-09-27T07:12:02.701Z,12.85
2018-09-27T07:14:31.439Z,12.63
2018-09-27T07:17:00.190Z,12.73
2018-09-27T07:22:13.379Z,13.48
2018-09-27T07:24:42.974Z,13.38
2018-09-27T07:27:12.626Z,13.49
2018-09-27T07:29:42.168Z,13.70
2018-09-27T07:32:10.649Z,14.03
2018-09-27T07:34:39.944Z,13.81
2018-09-27T07:37:08.742Z,13.84
2018-09-27T07:39:38.428Z,14.60
2018-09-27T07:42:08.838Z,15.12
2018-09-27T07:44:39.670Z,14.95
2018-09-27T07:47:09.070Z,14.57
2018-09-27T07:49:37.668Z,14.20
2018-09-27T07:52:07.510Z,13.99
2018-09-27T07:54:37.280Z,14.45
2018-09-27T07:57:07.277Z,14.85
2018-09-27T07:59:37.334Z,15.12
2018-09-27T08:02:08.448Z,15.16
2018-09-27T08:04:39.196Z,15.15
2018-09-27T08:07:08.601Z,14.62
2018-09-27T08:09:41.281Z,15.02
2018-09-27T08:12:14.645Z,15.02
2018-09-27T08:14:44.289Z,14.83
2018-09-27T08:17:14.395Z,15.15
2018-09-27T08:19:44.604Z,15.25
2018-09-27T08:22:13.091Z,4.16
2018-09-27T08:24:42.181Z,15.61
2018-09-27T08:27:12.106Z,16.32
2018-09-27T08:29:42.555Z,16.26
2018-09-27T08:32:15.809Z,16.72
2018-09-27T08:34:45.893Z,17.01
2018-09-27T08:37:16.028Z,17.19
2018-09-27T08:39:44.513Z,16.95
2018-09-27T08:42:33.437Z,17.36
2018-09-27T08:45:03.998Z,17.35
2018-09-27T08:47:34.704Z,16.87
2018-09-27T08:50:04.550Z,16.62
2018-09-27T08:52:34.143Z,16.54
2018-09-27T08:55:03.264Z,17.53
2018-09-27T08:57:33.739Z,17.93
2018-09-27T09:00:02.416Z,18.04
2018-09-27T09:02:32.366Z,18.26
2018-09-27T09:05:01.673Z,18.57
2018-09-27T09:07:30.500Z,18.10
2018-09-27T09:09:59.268Z,18.67
2018-09-27T09:12:29.053Z,18.35
2018-09-27T09:14:59.134Z,18.75
2018-09-27T09:17:30.280Z,18.81
2018-09-27T09:19:59.491Z,18.55
2018-09-27T09:22:33.080Z,19.32
2018-09-27T09:25:02.393Z,19.70
2018-09-27T09:27:33.782Z,19.80
2018-09-27T09:30:03.523Z,19.80
2018-09-27T09:32:34.555Z,20.08
2018-09-27T09:35:05.662Z,19.68
2018-09-27T09:37:36.929Z,19.83
2018-09-27T09:40:06.925Z,20.31
2018-09-27T09:42:37.064Z,20.50
2018-09-27T09:45:06.213Z,17.75
2018-09-27T09:47:34.758Z,17.74
2018-09-27T09:50:06.061Z,19.49
2018-09-27T09:52:35.710Z,19.41
2018-09-27T09:55:05.788Z,17.22
2018-09-27T09:57:39.194Z,19.30
2018-09-27T10:00:08.832Z,18.88
2018-09-27T10:02:41.287Z,19.31
2018-09-27T10:05:11.649Z,20.01
2018-09-27T10:07:41.016Z,20.09
2018-09-27T10:10:11.692Z,19.85
2018-09-27T10:12:41.764Z,20.38
2018-09-27T10:15:10.860Z,19.68
2018-09-27T10:17:40.624Z,19.75
2018-09-27T10:20:09.761Z,20.02
2018-09-27T10:22:38.341Z,19.82
2018-09-27T10:25:08.786Z,19.66
2018-09-27T10:27:48.424Z,20.30
2018-09-27T10:30:51.048Z,20.43
2018-09-27T10:33:22.108Z,20.38
2018-09-27T10:35:51.811Z,21.07
2018-09-27T10:38:23.443Z,21.05
2018-09-27T10:40:52.235Z,20.95
2018-09-27T10:43:22.895Z,20.11
2018-09-27T10:45:52.539Z,21.30
2018-09-27T10:48:21.941Z,21.44
2018-09-27T10:50:50.948Z,21.82
2018-09-27T10:53:21.144Z,21.20
2018-09-27T10:55:53.128Z,21.46
2018-09-27T10:58:22.496Z,21.52
2018-09-27T11:00:51.388Z,21.50
2018-09-27T11:03:20.499Z,21.15
2018-09-27T11:05:50.881Z,22.23
2018-09-27T11:08:24.519Z,22.84
2018-09-27T11:10:53.557Z,22.72
2018-09-27T11:13:22.191Z,23.21
2018-09-27T11:15:51.363Z,22.60
2018-09-27T11:18:20.818Z,22.51
2018-09-27T11:20:49.340Z,22.16
2018-09-27T11:23:18.517Z,22.57
2018-09-27T11:25:52.119Z,23.17
2018-09-27T11:28:23.659Z,23.94
2018-09-27T11:30:57.999Z,24.25
2018-09-27T11:33:27.251Z,23.04
2018-09-27T11:35:56.567Z,22.93
2018-09-27T11:38:29.468Z,23.58
2018-09-27T11:40:59.426Z,24.13
2018-09-27T11:43:29.481Z,24.31
2018-09-27T11:46:02.150Z,24.23
2018-09-27T11:48:35.622Z,24.79
2018-09-27T11:51:05.490Z,24.45
2018-09-27T11:53:34.017Z,25.19
2018-09-27T11:56:03.400Z,25.64
2018-09-27T11:58:35.242Z,25.74
2018-09-27T12:01:05.992Z,24.88
2018-09-27T12:03:35.024Z,24.80
2018-09-27T12:06:04.410Z,24.74
2018-09-27T12:08:34.121Z,24.94
2018-09-27T12:11:04.658Z,25.87
2018-09-27T12:13:33.823Z,25.71
2018-09-27T12:16:04.180Z,25.17
2018-09-27T12:18:33.192Z,25.85
2018-09-27T12:21:03.842Z,26.49
2018-09-27T12:23:34.271Z,25.57
2018-09-27T12:26:03.342Z,26.39
2018-09-27T12:28:32.156Z,26.25
2018-09-27T12:31:01.062Z,26.48
2018-09-27T12:33:31.615Z,26.46
2018-09-27T12:36:02.016Z,26.34
2018-09-27T12:38:32.894Z,26.27
2018-09-27T12:41:01.404Z,26.43
2018-09-27T12:43:30.037Z,26.30
2018-09-27T12:45:59.005Z,26.36
2018-09-27T12:48:28.707Z,26.59
2018-09-27T12:50:58.013Z,26.16
2018-09-27T12:53:27.733Z,25.59
2018-09-27T12:55:56.837Z,25.64
2018-09-27T12:58:26.231Z,25.46
2018-09-27T13:00:56.873Z,25.59
2018-09-27T13:03:26.574Z,25.70
2018-09-27T13:05:56.937Z,25.58
2018-09-27T13:08:26.056Z,25.67
2018-09-27T13:10:58.469Z,25.61
2018-09-27T13:13:30.206Z,25.63
2018-09-27T13:16:00.206Z,25.48
2018-09-27T13:18:30.693Z,25.43
2018-09-27T13:20:59.585Z,25.63
2018-09-27T13:23:29.184Z,25.55
2018-09-27T13:25:58.523Z,25.68
2018-09-27T13:28:28.817Z,25.74
2018-09-27T13:30:57.626Z,25.61
2018-09-27T13:33:27.680Z,25.87
2018-09-27T13:35:57.423Z,25.99
2018-09-27T13:38:28.448Z,16.22
2018-09-27T13:40:57.419Z,26.60
2018-09-27T13:43:26.244Z,26.58
2018-09-27T13:45:55.912Z,26.33
2018-09-27T13:48:26.169Z,26.41
2018-09-27T13:50:57.170Z,26.24
2018-09-27T13:53:26.216Z,26.19
2018-09-27T13:55:56.160Z,26.22
2018-09-27T13:58:25.027Z,26.23
2018-09-27T14:00:55.446Z,26.44
2018-09-27T14:03:26.475Z,26.47
2018-09-27T14:05:56.372Z,26.50
2018-09-27T14:08:25.963Z,27.14
2018-09-27T14:10:55.394Z,26.81
2018-09-27T14:13:26.424Z,27.22
2018-09-27T14:15:56.951Z,26.73
2018-09-27T14:18:25.716Z,26.87
2018-09-27T14:20:55.085Z,26.47
2018-09-27T14:23:24.272Z,26.50
2018-09-27T14:25:54.320Z,26.58
2018-09-27T14:28:25.346Z,26.70
2018-09-27T14:30:55.448Z,27.25
2018-09-27T14:33:26.079Z,27.11
2018-09-27T14:35:56.099Z,27.35
2018-09-27T14:38:26.067Z,27.53
2018-09-27T14:40:55.864Z,27.33
2018-09-27T14:43:26.271Z,26.91
2018-09-27T14:45:55.810Z,26.58
2018-09-27T14:48:24.500Z,26.98
2018-09-27T14:50:54.943Z,27.43
2018-09-27T14:53:25.137Z,27.31
2018-09-27T14:55:53.936Z,27.03
2018-09-27T14:58:24.431Z,26.89
2018-09-27T15:00:55.075Z,26.95
2018-09-27T15:03:24.104Z,26.91
2018-09-27T15:05:53.276Z,26.77
2018-09-27T15:08:24.317Z,26.76
2018-09-27T15:10:53.890Z,26.47
2018-09-27T15:13:25.083Z,26.60
2018-09-27T15:15:54.157Z,26.58
2018-09-27T15:18:22.920Z,26.75
2018-09-27T15:20:53.209Z,26.79
2018-09-27T15:23:23.131Z,26.72
2018-09-27T15:25:51.713Z,26.62
2018-09-27T15:28:20.759Z,26.17
2018-09-27T15:30:51.517Z,26.10
2018-09-27T15:33:22.008Z,26.19
2018-09-27T15:35:51.455Z,26.08
2018-09-27T15:38:23.524Z,26.17
2018-09-27T15:40:53.643Z,26.23
2018-09-27T15:43:22.816Z,26.18
2018-09-27T15:45:53.132Z,25.94
2018-09-27T15:48:22.204Z,25.97
2018-09-27T15:50:51.902Z,25.74
2018-09-27T15:53:21.335Z,25.94
2018-09-27T15:55:50.636Z,25.88
2018-09-27T15:58:21.255Z,25.74
2018-09-27T16:00:51.179Z,25.62
2018-09-27T16:03:20.602Z,25.70
2018-09-27T16:05:49.327Z,25.70
2018-09-27T16:08:19.771Z,25.69
2018-09-27T16:10:49.384Z,25.44
2018-09-27T16:13:17.916Z,25.42
2018-09-27T16:15:48.364Z,25.42
2018-09-27T16:18:18.124Z,25.31
2018-09-27T16:20:47.998Z,25.32
2018-09-27T16:23:16.858Z,25.27
2018-09-27T16:25:46.468Z,25.18
2018-09-27T16:28:15.860Z,25.06
2018-09-27T16:30:44.844Z,25.03
2018-09-27T16:33:14.367Z,25.03
2018-09-27T16:35:44.943Z,24.86
2018-09-27T16:38:16.926Z,24.84
2018-09-27T16:40:45.939Z,24.77
2018-09-27T16:43:15.974Z,24.66
2018-09-27T16:45:45.704Z,24.50
2018-09-27T16:48:15.765Z,24.48
2018-09-27T16:50:45.468Z,24.59
2018-09-27T16:53:16.359Z,24.48
2018-09-27T16:55:45.918Z,24.23
2018-09-27T16:58:17.920Z,24.13
2018-09-27T17:00:46.973Z,23.42
2018-09-27T17:03:17.009Z,23.23
2018-09-27T17:05:45.797Z,22.91
2018-09-27T17:08:14.857Z,23.37
2018-09-27T17:10:44.186Z,22.61
2018-09-27T17:13:12.930Z,22.28
2018-09-27T17:15:43.291Z,21.91
2018-09-27T17:18:12.401Z,21.68
2018-09-27T17:20:41.557Z,21.75
2018-09-27T17:23:14.064Z,22.02
2018-09-27T17:25:43.205Z,22.21
2018-09-27T17:28:12.699Z,21.79
2018-09-27T17:30:42.246Z,21.54
2018-09-27T17:33:11.253Z,21.97
2018-09-27T17:35:41.492Z,22.03
2018-09-27T17:38:13.083Z,22.09
2018-09-27T17:40:41.692Z,22.04
2018-09-27T17:43:10.984Z,21.59
2018-09-27T17:45:41.522Z,21.31
2018-09-27T17:48:11.593Z,21.31
2018-09-27T17:50:40.825Z,21.21
2018-09-27T17:53:10.807Z,20.94
2018-09-27T17:55:40.281Z,21.06
2018-09-27T17:58:10.738Z,20.91
2018-09-27T18:00:39.497Z,20.54
2018-09-27T18:03:08.063Z,20.70
2018-09-27T18:05:37.090Z,20.92
2018-09-27T18:08:07.032Z,20.73
2018-09-27T18:10:36.459Z,20.72
2018-09-27T18:13:06.786Z,20.46
2018-09-27T18:15:36.297Z,20.55
2018-09-27T18:18:06.862Z,20.36
2018-09-27T18:20:35.979Z,20.20
2018-09-27T18:23:06.047Z,20.32
2018-09-27T18:25:35.536Z,20.15
2018-09-27T18:28:06.250Z,20.11
2018-09-27T18:30:34.831Z,19.84
2018-09-27T18:33:04.295Z,20.12
2018-09-27T18:35:34.888Z,20.00
2018-09-27T18:38:04.175Z,19.29
2018-09-27T18:40:35.013Z,19.48
2018-09-27T18:43:05.177Z,19.48
2018-09-27T18:45:35.830Z,19.58
2018-09-27T18:48:05.529Z,19.90
2018-09-27T18:50:34.301Z,20.01
2018-09-27T18:53:06.037Z,20.05
2018-09-27T18:55:34.872Z,20.21
2018-09-27T18:58:07.803Z,20.08
2018-09-27T19:00:37.609Z,19.93
2018-09-27T19:03:06.939Z,20.00
2018-09-27T19:05:35.783Z,20.02
2018-09-27T19:08:05.778Z,19.57
2018-09-27T19:10:36.088Z,19.03
2018-09-27T19:13:04.888Z,18.81
2018-09-27T19:15:35.670Z,18.64
2018-09-27T19:18:05.401Z,18.19
2018-09-27T19:20:37.764Z,17.98
2018-09-27T19:23:08.164Z,17.69
2018-09-27T19:25:38.472Z,17.72
2018-09-27T19:28:07.244Z,17.71
2018-09-27T19:30:37.480Z,17.46
2018-09-27T19:33:06.613Z,17.76
2018-09-27T19:35:35.715Z,17.73
2018-09-27T19:38:04.957Z,17.69
2018-09-27T19:40:34.052Z,17.69
2018-09-27T19:43:03.921Z,18.07
2018-09-27T19:45:34.511Z,18.06
2018-09-27T19:48:05.068Z,17.50
2018-09-27T19:50:35.519Z,17.41
2018-09-27T19:59:53.757Z,16.79
2018-09-27T20:02:23.703Z,16.80
2018-09-27T20:04:54.580Z,17.05
2018-09-27T20:07:25.152Z,16.84
2018-09-27T20:09:54.668Z,17.15
2018-09-27T20:12:24.567Z,17.04
2018-09-27T20:14:54.358Z,16.90
2018-09-27T20:17:24.648Z,16.94
2018-09-27T20:19:53.767Z,16.76
2018-09-27T20:22:23.646Z,16.71
2018-09-27T20:24:53.422Z,16.71
2018-09-27T20:27:23.191Z,16.47
2018-09-27T20:29:52.072Z,16.40
2018-09-27T20:32:21.145Z,16.33
2018-09-27T20:34:51.663Z,16.15
2018-09-27T20:37:22.862Z,15.82
2018-09-27T20:39:52.497Z,16.20
2018-09-27T20:42:22.744Z,16.19
2018-09-27T20:44:52.592Z,16.44
2018-09-27T20:47:22.920Z,16.13
2018-09-27T20:49:51.985Z,16.16
2018-09-27T20:52:23.129Z,16.02
2018-09-27T20:54:52.430Z,15.99
2018-09-27T20:57:23.232Z,15.94
2018-09-27T20:59:53.979Z,15.85
2018-09-27T21:02:23.906Z,15.73
2018-09-27T21:04:52.896Z,15.94
2018-09-27T21:07:22.296Z,15.79
2018-09-27T21:09:53.511Z,15.52
2018-09-27T21:12:24.842Z,15.45
2018-09-27T21:14:55.295Z,15.18
2018-09-27T21:17:24.761Z,15.42
2018-09-27T21:19:54.194Z,15.18
2018-09-27T21:22:23.261Z,15.27
2018-09-27T21:24:54.430Z,14.96
2018-09-27T21:27:24.112Z,9.07
2018-09-27T21:29:53.576Z,15.09
2018-09-27T21:32:29.736Z,14.96
2018-09-27T21:35:00.998Z,14.87
2018-09-27T21:37:29.656Z,15.01
2018-09-27T21:40:00.196Z,14.95
2018-09-27T21:42:30.433Z,14.85
2018-09-27T21:45:00.043Z,14.79
2018-09-27T21:47:29.514Z,14.51
2018-09-27T21:49:58.658Z,14.59
2018-09-27T21:52:27.954Z,14.71
2018-09-27T21:54:57.427Z,14.62
2018-09-27T21:57:27.557Z,14.67
2018-09-27T21:59:57.502Z,14.58
2018-09-27T22:02:27.240Z,14.56
2018-09-27T22:04:56.200Z,14.43
2018-09-27T22:07:26.457Z,14.37
2018-09-27T22:09:58.108Z,14.27
2018-09-27T22:12:27.912Z,14.39
2018-09-27T22:14:57.866Z,14.40
2018-09-27T22:17:30.018Z,14.26
2018-09-27T22:19:59.361Z,14.26
2018-09-27T22:22:29.878Z,14.33
2018-09-27T22:25:00.828Z,14.26
2018-09-27T22:27:29.827Z,14.07
2018-09-27T22:29:59.986Z,14.05
2018-09-27T22:32:29.711Z,14.22
2018-09-27T22:35:01.534Z,14.16
2018-09-27T22:37:30.699Z,14.09
2018-09-27T22:40:00.839Z,13.93
2018-09-27T22:42:30.167Z,13.97
2018-09-27T22:45:00.244Z,13.74
2018-09-27T22:47:29.236Z,13.91
2018-09-27T22:49:58.022Z,13.78
2018-09-27T22:52:28.526Z,13.74
2018-09-27T22:54:57.646Z,13.60
2018-09-27T22:57:27.231Z,13.78
2018-09-27T22:59:57.642Z,13.65
2018-09-27T23:02:26.381Z,13.82
2018-09-27T23:04:56.360Z,13.68
2018-09-27T23:07:28.058Z,13.48
2018-09-27T23:09:57.520Z,13.59
2018-09-27T23:12:26.438Z,13.76
2018-09-27T23:14:55.424Z,12.94
2018-09-27T23:17:27.693Z,14.02
2018-09-27T23:19:57.072Z,13.65
2018-09-27T23:22:26.607Z,13.60
2018-09-27T23:24:57.951Z,13.77
2018-09-27T23:27:27.832Z,13.39
2018-09-27T23:29:56.889Z,13.47
2018-09-27T23:32:27.893Z,13.56
2018-09-27T23:34:57.454Z,13.48
2018-09-27T23:37:26.535Z,13.52
2018-09-27T23:39:55.577Z,13.49
2018-09-27T23:42:24.099Z,13.54
2018-09-27T23:44:56.763Z,13.40
2018-09-27T23:47:26.267Z,13.40
2018-09-27T23:49:55.492Z,13.62
2018-09-27T23:52:41.570Z,13.45
2018-09-27T23:55:11.569Z,13.38
2018-09-27T23:57:41.009Z,13.47
